Chanhassen, Minnesota
Current Conditions -  °F | °C
As of 3:53 AM on Saturday 29 Nov 2014 (Local Time) from KFCM Reporting Station
Haze Haze  
Wind Chill: 18°   Ceiling: Unl
Heat Index: 24°   Visibility: 6mi
Dew Point: 20°   Wind: 5mph
Humidity: 84%   Direction: 80°E
Pressure: 29.55"   Gusts: NA
Location:  44.86°N, 93.54°W
Report Text: KFCM 290953Z 08004KT 6SM BR CLR M04/M07 A2955 RMK AO2 SLP018 T10441067
Loading
Personal Weather Stations






























Interactive Weather Map New forecast layout! Learn more

10-Day Weather Forecast

Advertisements
Track Severe Weather on mobile